Portada
METAR-TAF:

METAR-TAF

Aeropuertos :

Aeropuerto de París-Charles de Gaulle

París-Charles De Gaulle, Francia

latitud: 49-01N, longitud: 002-32E, altitud: 118 m

Observación

El informe se hizo hace 40 minutos, a las 01:00 UTC
Viento 4 kt del norte
Temperatura 10°C
Humedad 66%
Presión 1028 hPa
Visibilidad 10 km o más
sin nubes por debajo de 1500 m y sin presencia de cumulonimbus.

METAR: LFPG 220100Z 36004KT CAVOK 10/04 Q1028 NOSIG

Hora: 03:40 (01:40 UTC)

Pronóstico

El informe se hizo hace 2 horas y 40 minutos, a las 23:00 UTC
Pronóstico válido del 22 a las 00 UTC al 23 a las 06 UTC
Viento 6 kt del norte
Visibilidad 10 km o más
sin nubes por debajo de 1500 m y sin presencia de cumulonimbus.

TAF: LFPG 212300Z 2200/2306 01006KT CAVOK TX20/2215Z TN08/2204Z

Observaciones y pronósticos meteorológicos de más de 4000 aeropuertos (mensajes METAR y TAF).

Los puntos amarillos y rojos representan las estaciones disponibles.

Ponga el ratón en el punto deseado para ver el nombre de la estación.

Haga clic para ver las observaciones y los pronósticos meteorológicos.

Para cambiar el mapa : haga clic en los botones verdes con una cruz de color negro para hacer un zoom, en el botón verde con un guión para alejar o en las flechas verdes para mapas adyacentes.


METAR-TAF: